sensor_id;sensor_type;location;lat;lon;timestamp;P1;durP1;ratioP1;P2;durP2;ratioP2
21492;SDS011;10908;50.690;4.400;2023-04-24T00:00:47;22.10;;;10.98;;
21492;SDS011;10908;50.690;4.400;2023-04-24T00:03:13;20.33;;;9.98;;
21492;SDS011;10908;50.690;4.400;2023-04-24T00:05:40;23.00;;;9.82;;
21492;SDS011;10908;50.690;4.400;2023-04-24T00:08:06;21.60;;;10.23;;
21492;SDS011;10908;50.690;4.400;2023-04-24T00:10:31;21.10;;;10.43;;
21492;SDS011;10908;50.690;4.400;2023-04-24T00:12:57;20.08;;;10.43;;
21492;SDS011;10908;50.690;4.400;2023-04-24T00:15:23;19.05;;;10.00;;
21492;SDS011;10908;50.690;4.400;2023-04-24T00:17:49;23.13;;;10.60;;
21492;SDS011;10908;50.690;4.400;2023-04-24T00:20:14;20.73;;;9.68;;
21492;SDS011;10908;50.690;4.400;2023-04-24T00:22:40;25.77;;;11.02;;
21492;SDS011;10908;50.690;4.400;2023-04-24T00:25:06;21.20;;;10.35;;
21492;SDS011;10908;50.690;4.400;2023-04-24T00:27:32;19.42;;;10.32;;
21492;SDS011;10908;50.690;4.400;2023-04-24T00:29:58;18.20;;;10.30;;
21492;SDS011;10908;50.690;4.400;2023-04-24T00:32:23;20.73;;;10.30;;
21492;SDS011;10908;50.690;4.400;2023-04-24T00:34:49;20.65;;;10.40;;
21492;SDS011;10908;50.690;4.400;2023-04-24T00:37:15;18.38;;;10.27;;
21492;SDS011;10908;50.690;4.400;2023-04-24T00:39:40;25.02;;;10.77;;
21492;SDS011;10908;50.690;4.400;2023-04-24T00:42:06;19.70;;;10.85;;
21492;SDS011;10908;50.690;4.400;2023-04-24T00:44:32;22.23;;;10.43;;
21492;SDS011;10908;50.690;4.400;2023-04-24T00:46:59;20.73;;;10.43;;
21492;SDS011;10908;50.690;4.400;2023-04-24T00:49:26;22.33;;;10.43;;
21492;SDS011;10908;50.690;4.400;2023-04-24T00:51:52;23.67;;;10.02;;
21492;SDS011;10908;50.690;4.400;2023-04-24T00:54:19;20.33;;;9.95;;
21492;SDS011;10908;50.690;4.400;2023-04-24T00:56:45;18.90;;;10.55;;
21492;SDS011;10908;50.690;4.400;2023-04-24T00:59:12;18.90;;;9.93;;
21492;SDS011;10908;50.690;4.400;2023-04-24T01:01:38;18.77;;;9.95;;
21492;SDS011;10908;50.690;4.400;2023-04-24T15:55:12;5.75;;;2.20;;
21492;SDS011;10908;50.690;4.400;2023-04-24T15:57:38;8.23;;;2.45;;
21492;SDS011;10908;50.690;4.400;2023-04-24T16:00:04;6.60;;;2.47;;
21492;SDS011;10908;50.690;4.400;2023-04-24T16:02:37;7.13;;;2.20;;
21492;SDS011;10908;50.690;4.400;2023-04-24T16:05:03;5.57;;;1.95;;
21492;SDS011;10908;50.690;4.400;2023-04-24T16:07:33;6.57;;;1.98;;
21492;SDS011;10908;50.690;4.400;2023-04-24T16:09:59;5.30;;;1.80;;
21492;SDS011;10908;50.690;4.400;2023-04-24T16:12:25;5.15;;;1.67;;
21492;SDS011;10908;50.690;4.400;2023-04-24T16:14:52;6.30;;;1.70;;
21492;SDS011;10908;50.690;4.400;2023-04-24T16:17:18;7.18;;;1.73;;
21492;SDS011;10908;50.690;4.400;2023-04-24T16:19:44;4.25;;;1.50;;
21492;SDS011;10908;50.690;4.400;2023-04-24T16:22:10;5.35;;;1.80;;
21492;SDS011;10908;50.690;4.400;2023-04-24T16:24:36;6.63;;;1.70;;
21492;SDS011;10908;50.690;4.400;2023-04-24T16:27:01;4.30;;;1.40;;
21492;SDS011;10908;50.690;4.400;2023-04-24T16:29:27;5.32;;;1.70;;
21492;SDS011;10908;50.690;4.400;2023-04-24T16:31:55;5.03;;;1.27;;
21492;SDS011;10908;50.690;4.400;2023-04-24T16:34:20;4.53;;;1.63;;
21492;SDS011;10908;50.690;4.400;2023-04-24T16:37:15;6.80;;;1.30;;
21492;SDS011;10908;50.690;4.400;2023-04-24T16:39:41;7.72;;;1.67;;
21492;SDS011;10908;50.690;4.400;2023-04-24T16:42:09;4.95;;;1.40;;
21492;SDS011;10908;50.690;4.400;2023-04-24T16:44:37;5.93;;;1.15;;
21492;SDS011;10908;50.690;4.400;2023-04-24T16:47:04;3.83;;;1.45;;
21492;SDS011;10908;50.690;4.400;2023-04-24T16:49:31;5.18;;;1.33;;
21492;SDS011;10908;50.690;4.400;2023-04-24T16:51:57;6.60;;;1.50;;
21492;SDS011;10908;50.690;4.400;2023-04-24T16:54:24;7.78;;;1.40;;
21492;SDS011;10908;50.690;4.400;2023-04-24T16:56:50;4.10;;;1.23;;
21492;SDS011;10908;50.690;4.400;2023-04-24T16:59:16;4.85;;;1.58;;
21492;SDS011;10908;50.690;4.400;2023-04-24T17:01:42;5.22;;;1.55;;
21492;SDS011;10908;50.690;4.400;2023-04-24T17:04:08;4.75;;;1.30;;
21492;SDS011;10908;50.690;4.400;2023-04-24T17:06:33;3.47;;;1.20;;
21492;SDS011;10908;50.690;4.400;2023-04-24T17:08:59;3.72;;;1.27;;
21492;SDS011;10908;50.690;4.400;2023-04-24T17:11:26;3.47;;;1.20;;
21492;SDS011;10908;50.690;4.400;2023-04-24T17:13:52;3.88;;;1.15;;
21492;SDS011;10908;50.690;4.400;2023-04-24T17:16:17;5.93;;;1.40;;
21492;SDS011;10908;50.690;4.400;2023-04-24T17:18:44;4.97;;;1.55;;
21492;SDS011;10908;50.690;4.400;2023-04-24T17:21:10;4.00;;;1.10;;
21492;SDS011;10908;50.690;4.400;2023-04-24T17:23:36;7.60;;;1.52;;
21492;SDS011;10908;50.690;4.400;2023-04-24T17:26:02;4.97;;;1.17;;
21492;SDS011;10908;50.690;4.400;2023-04-24T17:28:28;4.90;;;1.30;;
21492;SDS011;10908;50.690;4.400;2023-04-24T17:30:55;5.35;;;1.20;;
21492;SDS011;10908;50.690;4.400;2023-04-24T17:33:27;4.35;;;1.30;;
21492;SDS011;10908;50.690;4.400;2023-04-24T17:35:54;4.80;;;1.20;;
21492;SDS011;10908;50.690;4.400;2023-04-24T17:38:22;6.07;;;1.23;;
21492;SDS011;10908;50.690;4.400;2023-04-24T17:40:49;5.57;;;1.30;;
21492;SDS011;10908;50.690;4.400;2023-04-24T17:43:17;5.05;;;1.40;;
21492;SDS011;10908;50.690;4.400;2023-04-24T17:45:44;3.80;;;1.30;;
21492;SDS011;10908;50.690;4.400;2023-04-24T17:48:11;7.05;;;1.20;;
21492;SDS011;10908;50.690;4.400;2023-04-24T17:50:37;8.23;;;1.35;;
21492;SDS011;10908;50.690;4.400;2023-04-24T17:53:03;3.33;;;1.17;;
21492;SDS011;10908;50.690;4.400;2023-04-24T17:55:29;5.30;;;1.40;;
21492;SDS011;10908;50.690;4.400;2023-04-24T17:57:55;3.60;;;1.05;;
21492;SDS011;10908;50.690;4.400;2023-04-24T18:00:21;5.40;;;1.45;;
21492;SDS011;10908;50.690;4.400;2023-04-24T18:02:48;6.38;;;1.60;;
21492;SDS011;10908;50.690;4.400;2023-04-24T18:05:17;4.70;;;1.60;;
21492;SDS011;10908;50.690;4.400;2023-04-24T18:07:44;3.97;;;1.42;;
21492;SDS011;10908;50.690;4.400;2023-04-24T18:10:11;6.18;;;1.50;;
21492;SDS011;10908;50.690;4.400;2023-04-24T18:12:36;6.35;;;1.60;;
21492;SDS011;10908;50.690;4.400;2023-04-24T18:15:02;4.53;;;1.13;;
21492;SDS011;10908;50.690;4.400;2023-04-24T18:17:29;7.75;;;1.30;;
21492;SDS011;10908;50.690;4.400;2023-04-24T18:19:55;4.68;;;1.40;;
21492;SDS011;10908;50.690;4.400;2023-04-24T18:22:21;4.55;;;1.48;;
21492;SDS011;10908;50.690;4.400;2023-04-24T18:24:46;5.53;;;1.63;;
21492;SDS011;10908;50.690;4.400;2023-04-24T18:27:12;7.80;;;1.65;;
21492;SDS011;10908;50.690;4.400;2023-04-24T18:29:38;8.02;;;1.83;;
21492;SDS011;10908;50.690;4.400;2023-04-24T18:32:03;6.07;;;1.70;;
21492;SDS011;10908;50.690;4.400;2023-04-24T18:34:29;8.15;;;2.00;;
21492;SDS011;10908;50.690;4.400;2023-04-24T18:36:59;4.05;;;1.80;;
21492;SDS011;10908;50.690;4.400;2023-04-24T18:39:25;5.78;;;1.77;;
21492;SDS011;10908;50.690;4.400;2023-04-24T18:41:51;4.55;;;1.77;;
21492;SDS011;10908;50.690;4.400;2023-04-24T18:44:16;4.75;;;1.83;;
21492;SDS011;10908;50.690;4.400;2023-04-24T18:46:43;7.60;;;2.20;;
21492;SDS011;10908;50.690;4.400;2023-04-24T18:49:09;6.60;;;1.98;;
21492;SDS011;10908;50.690;4.400;2023-04-24T18:51:35;7.05;;;2.08;;
21492;SDS011;10908;50.690;4.400;2023-04-24T18:54:01;5.38;;;2.00;;
21492;SDS011;10908;50.690;4.400;2023-04-24T18:56:27;7.18;;;2.42;;
21492;SDS011;10908;50.690;4.400;2023-04-24T18:58:53;6.22;;;2.70;;
21492;SDS011;10908;50.690;4.400;2023-04-24T19:01:19;12.02;;;3.30;;
21492;SDS011;10908;50.690;4.400;2023-04-24T19:03:45;9.32;;;3.60;;
21492;SDS011;10908;50.690;4.400;2023-04-24T19:06:11;11.30;;;3.50;;
21492;SDS011;10908;50.690;4.400;2023-04-24T19:08:37;11.90;;;4.05;;
21492;SDS011;10908;50.690;4.400;2023-04-24T19:11:03;10.02;;;4.32;;
21492;SDS011;10908;50.690;4.400;2023-04-24T19:13:30;9.88;;;4.03;;
21492;SDS011;10908;50.690;4.400;2023-04-24T19:15:55;8.55;;;3.78;;
21492;SDS011;10908;50.690;4.400;2023-04-24T19:18:21;8.30;;;3.80;;
21492;SDS011;10908;50.690;4.400;2023-04-24T19:20:46;7.45;;;3.22;;
21492;SDS011;10908;50.690;4.400;2023-04-24T19:23:12;7.18;;;3.28;;
21492;SDS011;10908;50.690;4.400;2023-04-24T19:25:38;7.05;;;3.35;;
21492;SDS011;10908;50.690;4.400;2023-04-24T19:28:04;8.55;;;4.03;;
21492;SDS011;10908;50.690;4.400;2023-04-24T19:30:30;7.40;;;3.67;;
21492;SDS011;10908;50.690;4.400;2023-04-24T19:32:56;10.70;;;3.80;;
21492;SDS011;10908;50.690;4.400;2023-04-24T19:35:22;10.57;;;4.30;;
21492;SDS011;10908;50.690;4.400;2023-04-24T19:37:48;11.48;;;4.78;;
21492;SDS011;10908;50.690;4.400;2023-04-24T19:40:13;9.95;;;4.65;;
21492;SDS011;10908;50.690;4.400;2023-04-24T19:42:39;9.05;;;4.53;;
21492;SDS011;10908;50.690;4.400;2023-04-24T19:45:05;9.73;;;4.25;;
21492;SDS011;10908;50.690;4.400;2023-04-24T19:47:31;13.05;;;6.07;;
21492;SDS011;10908;50.690;4.400;2023-04-24T19:49:57;11.52;;;6.03;;
21492;SDS011;10908;50.690;4.400;2023-04-24T19:52:24;10.60;;;5.45;;
21492;SDS011;10908;50.690;4.400;2023-04-24T19:54:50;10.18;;;5.13;;
21492;SDS011;10908;50.690;4.400;2023-04-24T19:57:16;11.25;;;5.20;;
21492;SDS011;10908;50.690;4.400;2023-04-24T19:59:41;11.95;;;4.68;;
21492;SDS011;10908;50.690;4.400;2023-04-24T20:02:07;13.73;;;6.32;;
21492;SDS011;10908;50.690;4.400;2023-04-24T20:04:34;12.05;;;5.28;;
21492;SDS011;10908;50.690;4.400;2023-04-24T20:07:00;12.38;;;5.50;;
21492;SDS011;10908;50.690;4.400;2023-04-24T20:09:25;11.57;;;5.55;;
21492;SDS011;10908;50.690;4.400;2023-04-24T20:11:51;11.00;;;5.25;;
21492;SDS011;10908;50.690;4.400;2023-04-24T20:14:18;12.63;;;5.38;;
21492;SDS011;10908;50.690;4.400;2023-04-24T20:16:44;11.52;;;5.10;;
21492;SDS011;10908;50.690;4.400;2023-04-24T20:19:10;11.90;;;5.03;;
21492;SDS011;10908;50.690;4.400;2023-04-24T20:21:35;11.77;;;5.00;;
21492;SDS011;10908;50.690;4.400;2023-04-24T20:24:01;11.32;;;5.97;;
21492;SDS011;10908;50.690;4.400;2023-04-24T20:26:28;9.63;;;5.20;;
21492;SDS011;10908;50.690;4.400;2023-04-24T20:28:54;13.02;;;5.88;;
21492;SDS011;10908;50.690;4.400;2023-04-24T20:31:19;14.32;;;6.50;;
21492;SDS011;10908;50.690;4.400;2023-04-24T20:33:45;15.55;;;6.00;;
21492;SDS011;10908;50.690;4.400;2023-04-24T20:36:11;13.75;;;6.30;;
21492;SDS011;10908;50.690;4.400;2023-04-24T20:38:36;14.02;;;7.07;;
21492;SDS011;10908;50.690;4.400;2023-04-24T20:41:02;13.93;;;7.22;;
21492;SDS011;10908;50.690;4.400;2023-04-24T20:43:28;13.20;;;6.75;;
21492;SDS011;10908;50.690;4.400;2023-04-24T20:45:53;15.00;;;7.53;;
21492;SDS011;10908;50.690;4.400;2023-04-24T20:48:19;15.45;;;8.18;;
21492;SDS011;10908;50.690;4.400;2023-04-24T20:50:56;14.65;;;8.07;;
21492;SDS011;10908;50.690;4.400;2023-04-24T20:53:22;14.40;;;7.68;;
21492;SDS011;10908;50.690;4.400;2023-04-24T20:55:48;16.88;;;7.38;;
21492;SDS011;10908;50.690;4.400;2023-04-24T20:58:15;15.27;;;6.93;;
21492;SDS011;10908;50.690;4.400;2023-04-24T21:00:42;17.55;;;7.97;;
21492;SDS011;10908;50.690;4.400;2023-04-24T21:03:09;16.08;;;6.75;;
21492;SDS011;10908;50.690;4.400;2023-04-24T21:05:34;16.05;;;7.60;;
21492;SDS011;10908;50.690;4.400;2023-04-24T21:08:00;15.73;;;7.15;;
21492;SDS011;10908;50.690;4.400;2023-04-24T21:10:26;14.07;;;7.00;;
21492;SDS011;10908;50.690;4.400;2023-04-24T21:12:52;14.35;;;6.82;;
21492;SDS011;10908;50.690;4.400;2023-04-24T21:15:18;16.85;;;6.65;;
21492;SDS011;10908;50.690;4.400;2023-04-24T21:17:44;11.93;;;6.00;;
21492;SDS011;10908;50.690;4.400;2023-04-24T21:20:10;14.18;;;6.35;;
21492;SDS011;10908;50.690;4.400;2023-04-24T21:22:36;11.82;;;5.78;;
21492;SDS011;10908;50.690;4.400;2023-04-24T21:25:02;14.60;;;6.18;;
21492;SDS011;10908;50.690;4.400;2023-04-24T21:27:28;13.50;;;5.85;;
21492;SDS011;10908;50.690;4.400;2023-04-24T21:29:54;13.52;;;5.75;;
21492;SDS011;10908;50.690;4.400;2023-04-24T21:32:20;12.75;;;5.95;;
21492;SDS011;10908;50.690;4.400;2023-04-24T21:34:46;17.33;;;5.80;;
21492;SDS011;10908;50.690;4.400;2023-04-24T21:37:11;14.55;;;6.53;;
21492;SDS011;10908;50.690;4.400;2023-04-24T21:39:39;16.02;;;6.40;;
21492;SDS011;10908;50.690;4.400;2023-04-24T21:42:06;12.90;;;6.45;;
21492;SDS011;10908;50.690;4.400;2023-04-24T21:44:32;11.82;;;6.13;;
21492;SDS011;10908;50.690;4.400;2023-04-24T21:46:58;12.05;;;5.57;;
21492;SDS011;10908;50.690;4.400;2023-04-24T21:49:23;13.80;;;5.88;;
21492;SDS011;10908;50.690;4.400;2023-04-24T21:51:49;10.93;;;5.40;;
21492;SDS011;10908;50.690;4.400;2023-04-24T21:54:15;16.00;;;6.40;;
21492;SDS011;10908;50.690;4.400;2023-04-24T21:56:41;14.90;;;6.13;;
21492;SDS011;10908;50.690;4.400;2023-04-24T21:59:07;16.13;;;6.40;;
21492;SDS011;10908;50.690;4.400;2023-04-24T22:01:33;19.30;;;6.50;;
21492;SDS011;10908;50.690;4.400;2023-04-24T22:04:00;13.90;;;6.28;;
21492;SDS011;10908;50.690;4.400;2023-04-24T22:06:28;13.38;;;6.38;;
21492;SDS011;10908;50.690;4.400;2023-04-24T22:08:54;17.60;;;6.50;;
21492;SDS011;10908;50.690;4.400;2023-04-24T22:11:20;17.65;;;6.50;;
21492;SDS011;10908;50.690;4.400;2023-04-24T22:13:46;13.40;;;6.95;;
21492;SDS011;10908;50.690;4.400;2023-04-24T22:16:12;13.98;;;6.50;;
21492;SDS011;10908;50.690;4.400;2023-04-24T22:18:37;16.75;;;6.22;;
21492;SDS011;10908;50.690;4.400;2023-04-24T22:21:04;19.58;;;6.88;;
21492;SDS011;10908;50.690;4.400;2023-04-24T22:23:30;16.17;;;6.07;;
21492;SDS011;10908;50.690;4.400;2023-04-24T22:25:55;15.65;;;6.43;;
21492;SDS011;10908;50.690;4.400;2023-04-24T22:28:21;12.90;;;6.28;;
21492;SDS011;10908;50.690;4.400;2023-04-24T22:30:47;18.38;;;7.10;;
21492;SDS011;10908;50.690;4.400;2023-04-24T22:33:12;17.70;;;7.13;;
21492;SDS011;10908;50.690;4.400;2023-04-24T22:35:38;18.80;;;6.85;;
21492;SDS011;10908;50.690;4.400;2023-04-24T22:38:04;20.25;;;6.88;;
21492;SDS011;10908;50.690;4.400;2023-04-24T22:40:29;15.75;;;6.82;;
21492;SDS011;10908;50.690;4.400;2023-04-24T22:42:55;17.05;;;7.03;;
21492;SDS011;10908;50.690;4.400;2023-04-24T22:45:21;16.85;;;6.82;;
21492;SDS011;10908;50.690;4.400;2023-04-24T22:47:50;18.10;;;6.68;;
21492;SDS011;10908;50.690;4.400;2023-04-24T22:50:15;17.38;;;7.00;;
21492;SDS011;10908;50.690;4.400;2023-04-24T22:52:42;13.73;;;7.10;;
21492;SDS011;10908;50.690;4.400;2023-04-24T22:55:08;20.00;;;7.70;;
21492;SDS011;10908;50.690;4.400;2023-04-24T22:57:35;14.60;;;6.95;;
21492;SDS011;10908;50.690;4.400;2023-04-24T23:00:03;18.40;;;7.60;;
21492;SDS011;10908;50.690;4.400;2023-04-24T23:02:36;20.95;;;6.70;;
21492;SDS011;10908;50.690;4.400;2023-04-24T23:05:02;16.90;;;6.03;;
21492;SDS011;10908;50.690;4.400;2023-04-24T23:07:28;15.25;;;5.65;;
21492;SDS011;10908;50.690;4.400;2023-04-24T23:09:54;18.48;;;6.47;;
21492;SDS011;10908;50.690;4.400;2023-04-24T23:12:20;17.65;;;6.10;;
21492;SDS011;10908;50.690;4.400;2023-04-24T23:14:45;16.45;;;5.80;;
21492;SDS011;10908;50.690;4.400;2023-04-24T23:17:11;15.13;;;5.32;;
21492;SDS011;10908;50.690;4.400;2023-04-24T23:19:37;16.23;;;6.10;;
21492;SDS011;10908;50.690;4.400;2023-04-24T23:22:02;15.25;;;5.00;;
21492;SDS011;10908;50.690;4.400;2023-04-24T23:24:28;12.10;;;5.35;;
21492;SDS011;10908;50.690;4.400;2023-04-24T23:26:54;13.45;;;4.43;;
21492;SDS011;10908;50.690;4.400;2023-04-24T23:29:19;12.13;;;4.53;;
21492;SDS011;10908;50.690;4.400;2023-04-24T23:31:47;17.95;;;5.07;;
21492;SDS011;10908;50.690;4.400;2023-04-24T23:34:13;15.32;;;4.80;;
21492;SDS011;10908;50.690;4.400;2023-04-24T23:36:42;10.45;;;4.43;;
21492;SDS011;10908;50.690;4.400;2023-04-24T23:39:07;15.40;;;4.18;;
21492;SDS011;10908;50.690;4.400;2023-04-24T23:41:33;12.70;;;4.35;;
21492;SDS011;10908;50.690;4.400;2023-04-24T23:43:59;14.30;;;4.03;;
21492;SDS011;10908;50.690;4.400;2023-04-24T23:46:25;14.95;;;4.13;;
21492;SDS011;10908;50.690;4.400;2023-04-24T23:48:50;16.10;;;4.20;;
21492;SDS011;10908;50.690;4.400;2023-04-24T23:51:16;13.13;;;3.70;;
21492;SDS011;10908;50.690;4.400;2023-04-24T23:53:42;14.75;;;3.50;;
21492;SDS011;10908;50.690;4.400;2023-04-24T23:56:07;21.65;;;4.28;;
21492;SDS011;10908;50.690;4.400;2023-04-24T23:58:33;17.50;;;3.53;;
